Startpagina
METAR-TAF:

METAR-TAF

Vliegvelden :

Ranchi, India

breedte: 23-18-51N, lengte: 85-19-18E, hoogte: 646 m

Actueel weer

Dit bericht is 33 minuten geleden gemaakt, om 05:30 UTC
Wind 3 kt uit het noordnoordoosten
Temperatuur 29°C
Vochtigheid 70%
Druk 1010 hPa
Zicht: 3000 m
Verspreide wolken op 1800 ft
Heiigheid

METAR: VERC 190530Z 02003KT 3000 HZ SCT018 29/23 Q1010 NOSIG

Tijdstip: 11:33 (06:03 UTC)


TAF: ontbreekt

Waarnemingen en weersverwachtingen van meer dan 4000 vliegvelden (METAR en TAF).

De beschikbare stations zijn de gele en rode punten op de kaart.

Ga met uw muis naar het station om de naam te zien.

Klik dan om waarnemingen en weersverwachtingen te zien.

kaart wijzigen: klik op de groene knoppen met een zwart kruis om in te zoomen, op de groene knop met een streepje om uit te zoomen of op de groene pijlen voor aangrenzende kaarten.


METAR-TAF: